Aviation Digital Data Service (ADDS)

Output produced by METARs form (1650 UTC 16 June 2019)
found at http://www.aviationweather.gov/metar/data/
 
Forecast for: KSNA (COSTA MESA , CA, US)
Text: KSNA 161120Z 1612/1712 VRB04KT P6SM OVC014
Forecast period: 1200 to 2000 UTC 16 June 2019
Forecast type: FROM: standard forecast or significant change
Winds: variable direction winds at 5 MPH (4 knots; 2.1 m/s)
Visibility: 6 or more miles 10+ km)
Ceiling: 1400 feet AGL
Clouds: overcast cloud deck at 1400 feet AGL
Weather: no significant weather forecast for this period
Text: FM162000 22009KT P6SM SCT020
Forecast period: 2000 UTC 16 June 2019 to 0300 UTC 17 June 2019
Forecast type: FROM: standard forecast or significant change
Winds: from the SW (220 degrees) at 10 MPH (9 knots; 4.6 m/s)
Visibility: 6 or more miles 10+ km)
Ceiling: at least 12,000 feet AGL
Clouds: scattered clouds at 2000 feet AGL
Weather: no significant weather forecast for this period
Text: FM170300 VRB05KT P6SM OVC013
Forecast period: 0300 to 1200 UTC 17 June 2019
Forecast type: FROM: standard forecast or significant change
Winds: variable direction winds at 6 MPH (5 knots; 2.6 m/s)
Visibility: 6 or more miles 10+ km)
Ceiling: 1300 feet AGL
Clouds: overcast cloud deck at 1300 feet AGL
Weather: no significant weather forecast for this period